UAL654 KIAH-KDCA
Flight info
| Callsign | UAL654 |
|---|---|
| Flight time | 2h 32m |
| Altitude | 37000 |
| Route | MMUGS4 GUSTI Q22 CATLN Q56 KIWII WAVES CAPSS4 |
| Aircraft | A320/M-SDE3FGHIRWY/LB1 |
Departure
| Time | 2026-05-05 17:06 |
|---|---|
| Airport | George Bush Intercontinental Airport (KIAH) |
Arrival
| Time | 2026-05-05 19:38 |
|---|---|
| Airport | Ronald Reagan Washington National Airport (KDCA) |
| Time | Latitude | Longitude | Altitude | Speed | Heading |
|---|---|---|---|---|---|
| 2026-05-05 16:47 | 29.98390 | -95.33575 | 107 ft | 0 kts | 60° |
| 2026-05-05 16:56 | 29.98382 | -95.33590 | 107 ft | 4 kts | 43° |
| 2026-05-05 16:56 | 29.98361 | -95.33602 | 106 ft | 4 kts | 348° |
| 2026-05-05 16:57 | 29.98338 | -95.33589 | 106 ft | 4 kts | 317° |
| 2026-05-05 16:57 | 29.98320 | -95.33566 | 106 ft | 4 kts | 305° |
| 2026-05-05 16:57 | 29.98306 | -95.33539 | 105 ft | 4 kts | 291° |
| 2026-05-05 16:57 | 29.98301 | -95.33514 | 106 ft | 4 kts | 270° |
| 2026-05-05 16:58 | 29.98301 | -95.33489 | 106 ft | 0 kts | 270° |
| 2026-05-05 17:00 | 29.98301 | -95.33517 | 107 ft | 7 kts | 270° |
| 2026-05-05 17:00 | 29.98304 | -95.33604 | 107 ft | 14 kts | 276° |
| 2026-05-05 17:00 | 29.98316 | -95.33743 | 107 ft | 20 kts | 275° |
| 2026-05-05 17:00 | 29.98316 | -95.33910 | 107 ft | 22 kts | 269° |
| 2026-05-05 17:01 | 29.98305 | -95.34093 | 107 ft | 24 kts | 265° |
| 2026-05-05 17:01 | 29.98302 | -95.34288 | 107 ft | 25 kts | 269° |
| 2026-05-05 17:01 | 29.98271 | -95.34486 | 107 ft | 18 kts | 246° |
| 2026-05-05 17:01 | 29.98257 | -95.34591 | 107 ft | 14 kts | 270° |
| 2026-05-05 17:02 | 29.98257 | -95.34715 | 107 ft | 17 kts | 270° |
| 2026-05-05 17:02 | 29.98256 | -95.34856 | 107 ft | 19 kts | 269° |
| 2026-05-05 17:02 | 29.98256 | -95.35016 | 107 ft | 21 kts | 270° |
| 2026-05-05 17:02 | 29.98222 | -95.35141 | 106 ft | 13 kts | 241° |
| 2026-05-05 17:03 | 29.98234 | -95.35234 | 107 ft | 14 kts | 329° |
| 2026-05-05 17:03 | 29.98328 | -95.35290 | 107 ft | 16 kts | 332° |
| 2026-05-05 17:03 | 29.98432 | -95.35353 | 105 ft | 18 kts | 332° |
| 2026-05-05 17:03 | 29.98548 | -95.35425 | 107 ft | 20 kts | 332° |
| 2026-05-05 17:04 | 29.98673 | -95.35501 | 107 ft | 21 kts | 332° |
| 2026-05-05 17:04 | 29.98770 | -95.35566 | 107 ft | 12 kts | 313° |
| 2026-05-05 17:04 | 29.98756 | -95.35656 | 106 ft | 13 kts | 243° |
| 2026-05-05 17:04 | 29.98693 | -95.35722 | 108 ft | 14 kts | 176° |
| 2026-05-05 17:05 | 29.98598 | -95.35672 | 108 ft | 18 kts | 152° |
| 2026-05-05 17:05 | 29.98294 | -95.35486 | 107 ft | 83 kts | 152° |
| 2026-05-05 17:05 | 29.97620 | -95.35074 | 107 ft | 134 kts | 152° |
| 2026-05-05 17:05 | 29.96681 | -95.34506 | 306 ft | 158 kts | 154° |
| 2026-05-05 17:06 | 29.95740 | -95.33850 | 892 ft | 159 kts | 138° |
| 2026-05-05 17:06 | 29.94988 | -95.32895 | 1401 ft | 165 kts | 134° |
| 2026-05-05 17:06 | 29.94231 | -95.31787 | 1670 ft | 187 kts | 133° |
| 2026-05-05 17:06 | 29.93381 | -95.30527 | 1961 ft | 209 kts | 133° |
| 2026-05-05 17:07 | 29.92443 | -95.29145 | 2292 ft | 231 kts | 134° |
| 2026-05-05 17:07 | 29.91395 | -95.27625 | 2710 ft | 252 kts | 133° |
| 2026-05-05 17:07 | 29.90285 | -95.26024 | 3449 ft | 261 kts | 133° |
| 2026-05-05 17:07 | 29.89132 | -95.24365 | 3872 ft | 267 kts | 133° |
| 2026-05-05 17:08 | 29.88006 | -95.22681 | 4401 ft | 270 kts | 131° |
| 2026-05-05 17:08 | 29.86900 | -95.20918 | 4872 ft | 271 kts | 130° |
| 2026-05-05 17:08 | 29.85799 | -95.19121 | 4985 ft | 272 kts | 129° |
| 2026-05-05 17:08 | 29.84723 | -95.17355 | 5007 ft | 273 kts | 129° |
| 2026-05-05 17:09 | 29.83628 | -95.15567 | 5006 ft | 273 kts | 129° |
| 2026-05-05 17:09 | 29.82662 | -95.13682 | 5008 ft | 278 kts | 115° |
| 2026-05-05 17:09 | 29.82293 | -95.11464 | 5248 ft | 291 kts | 95° |
| 2026-05-05 17:09 | 29.82232 | -95.09139 | 6073 ft | 293 kts | 95° |
| 2026-05-05 17:10 | 29.82141 | -95.06770 | 6800 ft | 297 kts | 95° |
| 2026-05-05 17:10 | 29.82035 | -95.04382 | 7515 ft | 301 kts | 95° |
| 2026-05-05 17:10 | 29.81924 | -95.01947 | 8230 ft | 305 kts | 94° |
| 2026-05-05 17:10 | 29.81816 | -94.99492 | 8982 ft | 308 kts | 94° |
| 2026-05-05 17:11 | 29.81847 | -94.97009 | 9660 ft | 313 kts | 86° |
| 2026-05-05 17:11 | 29.82008 | -94.94490 | 10234 ft | 321 kts | 85° |
| 2026-05-05 17:11 | 29.82184 | -94.91834 | 10417 ft | 344 kts | 85° |
| 2026-05-05 17:11 | 29.82374 | -94.88995 | 10552 ft | 366 kts | 85° |
| 2026-05-05 17:12 | 29.82572 | -94.85995 | 10859 ft | 380 kts | 84° |
| 2026-05-05 17:12 | 29.82767 | -94.82948 | 11436 ft | 383 kts | 84° |
| 2026-05-05 17:12 | 29.82964 | -94.79858 | 11983 ft | 389 kts | 84° |
| 2026-05-05 17:12 | 29.83162 | -94.76742 | 12570 ft | 392 kts | 84° |
| 2026-05-05 17:13 | 29.83363 | -94.73642 | 13176 ft | 394 kts | 84° |
| 2026-05-05 17:13 | 29.83581 | -94.70490 | 13764 ft | 397 kts | 83° |
| 2026-05-05 17:13 | 29.83811 | -94.67298 | 14267 ft | 401 kts | 83° |
| 2026-05-05 17:13 | 29.84044 | -94.64076 | 14754 ft | 406 kts | 83° |
| 2026-05-05 17:14 | 29.84275 | -94.60823 | 15208 ft | 411 kts | 83° |
| 2026-05-05 17:14 | 29.84506 | -94.57523 | 15675 ft | 416 kts | 84° |
| 2026-05-05 17:14 | 29.84738 | -94.54182 | 16135 ft | 421 kts | 84° |
| 2026-05-05 17:14 | 29.84971 | -94.50800 | 16602 ft | 426 kts | 84° |
| 2026-05-05 17:15 | 29.85205 | -94.47378 | 17088 ft | 431 kts | 84° |
| 2026-05-05 17:15 | 29.85441 | -94.43916 | 17568 ft | 436 kts | 84° |
| 2026-05-05 17:15 | 29.85678 | -94.40412 | 18052 ft | 441 kts | 84° |
| 2026-05-05 17:15 | 29.85914 | -94.36872 | 18499 ft | 446 kts | 84° |
| 2026-05-05 17:16 | 29.86150 | -94.33278 | 18944 ft | 451 kts | 85° |
| 2026-05-05 17:16 | 29.86156 | -94.29639 | 19383 ft | 457 kts | 91° |
| 2026-05-05 17:16 | 29.86041 | -94.25963 | 19845 ft | 461 kts | 91° |
| 2026-05-05 17:16 | 29.85926 | -94.22251 | 20299 ft | 466 kts | 91° |
| 2026-05-05 17:17 | 29.85810 | -94.18501 | 20726 ft | 471 kts | 91° |
| 2026-05-05 17:17 | 29.85694 | -94.14723 | 21148 ft | 475 kts | 91° |
| 2026-05-05 17:17 | 29.85575 | -94.10895 | 21559 ft | 479 kts | 90° |
| 2026-05-05 17:17 | 29.85452 | -94.07040 | 21961 ft | 483 kts | 90° |
| 2026-05-05 17:18 | 29.85516 | -94.03162 | 22342 ft | 485 kts | 82° |
| 2026-05-05 17:18 | 29.85922 | -93.99292 | 22721 ft | 488 kts | 80° |
| 2026-05-05 17:18 | 29.86340 | -93.95447 | 23091 ft | 492 kts | 79° |
| 2026-05-05 17:18 | 29.86764 | -93.91519 | 23460 ft | 496 kts | 79° |
| 2026-05-05 17:19 | 29.87190 | -93.87561 | 23773 ft | 499 kts | 80° |
| 2026-05-05 17:19 | 29.87618 | -93.83562 | 24095 ft | 502 kts | 80° |
| 2026-05-05 17:19 | 29.88038 | -93.79571 | 24447 ft | 504 kts | 79° |
| 2026-05-05 17:19 | 29.88459 | -93.75546 | 24779 ft | 506 kts | 80° |
| 2026-05-05 17:20 | 29.88882 | -93.71515 | 25087 ft | 508 kts | 80° |
| 2026-05-05 17:20 | 29.89307 | -93.67468 | 25405 ft | 510 kts | 80° |
| 2026-05-05 17:20 | 29.89732 | -93.63413 | 25716 ft | 512 kts | 80° |
| 2026-05-05 17:20 | 29.90158 | -93.59332 | 26025 ft | 514 kts | 80° |
| 2026-05-05 17:21 | 29.90588 | -93.55222 | 26340 ft | 516 kts | 80° |
| 2026-05-05 17:21 | 29.91015 | -93.51106 | 26650 ft | 518 kts | 80° |
| 2026-05-05 17:21 | 29.91442 | -93.46973 | 26965 ft | 520 kts | 80° |
| 2026-05-05 17:22 | 29.92292 | -93.38712 | 27564 ft | 525 kts | 81° |
| 2026-05-05 17:22 | 29.92717 | -93.34536 | 27864 ft | 527 kts | 81° |
| 2026-05-05 17:22 | 29.93145 | -93.30324 | 28145 ft | 529 kts | 81° |
| 2026-05-05 17:22 | 29.93572 | -93.26110 | 28514 ft | 529 kts | 81° |
| 2026-05-05 17:23 | 29.93997 | -93.21903 | 28958 ft | 528 kts | 81° |
| 2026-05-05 17:23 | 29.94420 | -93.17702 | 29394 ft | 527 kts | 81° |
| 2026-05-05 17:23 | 29.94841 | -93.13517 | 29838 ft | 526 kts | 81° |
| 2026-05-05 17:23 | 29.95262 | -93.09319 | 30221 ft | 526 kts | 81° |
| 2026-05-05 17:24 | 29.95681 | -93.05143 | 30579 ft | 525 kts | 81° |
| 2026-05-05 17:24 | 29.96101 | -93.00951 | 30945 ft | 525 kts | 81° |
| 2026-05-05 17:24 | 29.96518 | -92.96771 | 31305 ft | 524 kts | 81° |
| 2026-05-05 17:24 | 29.96932 | -92.92602 | 31666 ft | 524 kts | 80° |
| 2026-05-05 17:25 | 29.97579 | -92.88473 | 32026 ft | 521 kts | 73° |
| 2026-05-05 17:25 | 29.98112 | -92.85774 | 32269 ft | 521 kts | 73° |
| 2026-05-05 17:25 | 29.99182 | -92.80328 | 32770 ft | 520 kts | 73° |
| 2026-05-05 17:25 | 29.99978 | -92.76257 | 33147 ft | 520 kts | 73° |
| 2026-05-05 17:26 | 30.00769 | -92.72185 | 33528 ft | 520 kts | 73° |
| 2026-05-05 17:26 | 30.01554 | -92.68112 | 33903 ft | 520 kts | 73° |
| 2026-05-05 17:26 | 30.02335 | -92.64042 | 34245 ft | 519 kts | 73° |
| 2026-05-05 17:26 | 30.03111 | -92.59980 | 34573 ft | 518 kts | 73° |
| 2026-05-05 17:27 | 30.03889 | -92.55922 | 34878 ft | 518 kts | 73° |
| 2026-05-05 17:27 | 30.04671 | -92.51870 | 35168 ft | 517 kts | 73° |
| 2026-05-05 17:27 | 30.05456 | -92.47818 | 35445 ft | 517 kts | 73° |
| 2026-05-05 17:27 | 30.06239 | -92.43766 | 35723 ft | 517 kts | 73° |
| 2026-05-05 17:28 | 30.07016 | -92.39713 | 35993 ft | 517 kts | 73° |
| 2026-05-05 17:28 | 30.07788 | -92.35658 | 36252 ft | 517 kts | 73° |
| 2026-05-05 17:28 | 30.08558 | -92.31603 | 36513 ft | 517 kts | 73° |
| 2026-05-05 17:28 | 30.09328 | -92.27548 | 36768 ft | 517 kts | 73° |
| 2026-05-05 17:29 | 30.10099 | -92.23485 | 36939 ft | 520 kts | 73° |
| 2026-05-05 17:29 | 30.11651 | -92.15306 | 36953 ft | 527 kts | 73° |
| 2026-05-05 17:30 | 30.13219 | -92.07021 | 36968 ft | 529 kts | 73° |
| 2026-05-05 17:30 | 30.14783 | -91.98716 | 36971 ft | 529 kts | 73° |
| 2026-05-05 17:31 | 30.16339 | -91.90406 | 36982 ft | 529 kts | 73° |
| 2026-05-05 17:31 | 30.17896 | -91.82091 | 36971 ft | 529 kts | 73° |
| 2026-05-05 17:32 | 30.19187 | -91.75172 | 36971 ft | 530 kts | 73° |
| 2026-05-05 17:32 | 30.20733 | -91.66841 | 36980 ft | 530 kts | 73° |
| 2026-05-05 17:33 | 30.22270 | -91.58513 | 36980 ft | 530 kts | 73° |
| 2026-05-05 17:33 | 30.23811 | -91.50165 | 36984 ft | 530 kts | 73° |
| 2026-05-05 17:34 | 30.25339 | -91.41813 | 36986 ft | 530 kts | 73° |
| 2026-05-05 17:34 | 30.26852 | -91.33520 | 36996 ft | 530 kts | 73° |
| 2026-05-05 17:35 | 30.28370 | -91.25179 | 36996 ft | 530 kts | 73° |
| 2026-05-05 17:35 | 30.29887 | -91.16828 | 37001 ft | 530 kts | 73° |
| 2026-05-05 17:36 | 30.31395 | -91.08485 | 37003 ft | 529 kts | 73° |
| 2026-05-05 17:36 | 30.32905 | -91.00134 | 37003 ft | 529 kts | 73° |
| 2026-05-05 17:37 | 30.34401 | -90.91790 | 37001 ft | 529 kts | 73° |
| 2026-05-05 17:37 | 30.35892 | -90.83435 | 36999 ft | 529 kts | 73° |
| 2026-05-05 17:38 | 30.37367 | -90.75145 | 37001 ft | 529 kts | 73° |
| 2026-05-05 17:38 | 30.38845 | -90.66797 | 37013 ft | 529 kts | 73° |
| 2026-05-05 17:39 | 30.40317 | -90.58448 | 37011 ft | 529 kts | 73° |
| 2026-05-05 17:39 | 30.41785 | -90.50091 | 37008 ft | 528 kts | 73° |
| 2026-05-05 17:40 | 30.43257 | -90.41742 | 37015 ft | 529 kts | 73° |
| 2026-05-05 17:40 | 30.44723 | -90.33379 | 37030 ft | 530 kts | 73° |
| 2026-05-05 17:41 | 30.46175 | -90.25004 | 37025 ft | 530 kts | 73° |
| 2026-05-05 17:41 | 30.47844 | -90.16717 | 37018 ft | 525 kts | 67° |
| 2026-05-05 17:42 | 30.49904 | -90.08647 | 37010 ft | 525 kts | 67° |
| 2026-05-05 17:42 | 30.51982 | -90.00532 | 37002 ft | 525 kts | 67° |
| 2026-05-05 17:43 | 30.54052 | -89.92410 | 37027 ft | 525 kts | 67° |
| 2026-05-05 17:43 | 30.56110 | -89.84273 | 37023 ft | 525 kts | 67° |
| 2026-05-05 17:44 | 30.58168 | -89.76137 | 37025 ft | 525 kts | 67° |
| 2026-05-05 17:44 | 30.60220 | -89.68008 | 37025 ft | 525 kts | 67° |
| 2026-05-05 17:45 | 30.62267 | -89.59875 | 37021 ft | 525 kts | 67° |
| 2026-05-05 17:45 | 30.64304 | -89.51737 | 37021 ft | 525 kts | 67° |
| 2026-05-05 17:46 | 30.66311 | -89.43635 | 37019 ft | 525 kts | 67° |
| 2026-05-05 17:46 | 30.68350 | -89.35432 | 37021 ft | 525 kts | 67° |
| 2026-05-05 17:47 | 30.70372 | -89.27344 | 37023 ft | 525 kts | 67° |
| 2026-05-05 17:47 | 30.72398 | -89.19195 | 37039 ft | 525 kts | 67° |
| 2026-05-05 17:48 | 30.74420 | -89.11033 | 37030 ft | 525 kts | 67° |
| 2026-05-05 17:48 | 30.76429 | -89.02867 | 37024 ft | 525 kts | 67° |
| 2026-05-05 17:49 | 30.78425 | -88.94695 | 37020 ft | 525 kts | 67° |
| 2026-05-05 17:49 | 30.80418 | -88.86532 | 37028 ft | 525 kts | 67° |
| 2026-05-05 17:50 | 30.82413 | -88.78360 | 37032 ft | 524 kts | 67° |
| 2026-05-05 17:50 | 30.84386 | -88.70253 | 37036 ft | 524 kts | 67° |
| 2026-05-05 17:51 | 30.86367 | -88.62081 | 37035 ft | 524 kts | 67° |
| 2026-05-05 17:51 | 30.88341 | -88.53915 | 37041 ft | 524 kts | 67° |
| 2026-05-05 17:52 | 30.90315 | -88.45749 | 37065 ft | 524 kts | 67° |
| 2026-05-05 17:52 | 30.92402 | -88.37641 | 37061 ft | 517 kts | 60° |
| 2026-05-05 17:52 | 30.93911 | -88.33895 | 37043 ft | 506 kts | 51° |
| 2026-05-05 17:53 | 30.95653 | -88.30346 | 37064 ft | 505 kts | 50° |
| 2026-05-05 17:53 | 30.99143 | -88.23243 | 37027 ft | 505 kts | 51° |
| 2026-05-05 17:54 | 31.02621 | -88.16110 | 37031 ft | 506 kts | 51° |
| 2026-05-05 17:54 | 31.06086 | -88.08974 | 37038 ft | 506 kts | 51° |
| 2026-05-05 17:55 | 31.09557 | -88.01833 | 37039 ft | 506 kts | 51° |
| 2026-05-05 17:55 | 31.13001 | -87.94740 | 37041 ft | 506 kts | 51° |
| 2026-05-05 17:56 | 31.16466 | -87.87596 | 37040 ft | 505 kts | 51° |
| 2026-05-05 17:56 | 31.19918 | -87.80452 | 37039 ft | 506 kts | 51° |
| 2026-05-05 17:57 | 31.23372 | -87.73293 | 37042 ft | 506 kts | 50° |
| 2026-05-05 17:57 | 31.26819 | -87.66125 | 37022 ft | 505 kts | 50° |
| 2026-05-05 17:58 | 31.30265 | -87.58976 | 37028 ft | 502 kts | 48° |
| 2026-05-05 17:58 | 31.32233 | -87.55670 | 37035 ft | 491 kts | 41° |
| 2026-05-05 17:58 | 31.34323 | -87.52499 | 37031 ft | 491 kts | 41° |
| 2026-05-05 17:59 | 31.38496 | -87.46169 | 37028 ft | 491 kts | 41° |
| 2026-05-05 17:59 | 31.42656 | -87.39830 | 37029 ft | 492 kts | 41° |
| 2026-05-05 18:00 | 31.46819 | -87.33463 | 37032 ft | 492 kts | 41° |
| 2026-05-05 18:00 | 31.50960 | -87.27133 | 37037 ft | 491 kts | 41° |
| 2026-05-05 18:01 | 31.55108 | -87.20778 | 37021 ft | 490 kts | 41° |
| 2026-05-05 18:01 | 31.59245 | -87.14417 | 37052 ft | 491 kts | 41° |
| 2026-05-05 18:02 | 31.63385 | -87.08038 | 37024 ft | 491 kts | 41° |
| 2026-05-05 18:02 | 31.67533 | -87.01652 | 36980 ft | 491 kts | 41° |
| 2026-05-05 18:03 | 31.71680 | -86.95269 | 36978 ft | 492 kts | 41° |
| 2026-05-05 18:03 | 31.75816 | -86.88869 | 37011 ft | 492 kts | 41° |
| 2026-05-05 18:04 | 31.79942 | -86.82468 | 37020 ft | 490 kts | 41° |
| 2026-05-05 18:04 | 31.84040 | -86.76116 | 37042 ft | 490 kts | 41° |
| 2026-05-05 18:05 | 31.88161 | -86.69716 | 37063 ft | 491 kts | 41° |
| 2026-05-05 18:05 | 31.92288 | -86.63296 | 37070 ft | 491 kts | 41° |
| 2026-05-05 18:06 | 31.96411 | -86.56876 | 37058 ft | 491 kts | 41° |
| 2026-05-05 18:06 | 32.00533 | -86.50442 | 37045 ft | 491 kts | 41° |
| 2026-05-05 18:07 | 32.04619 | -86.44045 | 37028 ft | 489 kts | 41° |
| 2026-05-05 18:07 | 32.08694 | -86.37642 | 37030 ft | 487 kts | 41° |
| 2026-05-05 18:08 | 32.12773 | -86.31252 | 37047 ft | 488 kts | 41° |
| 2026-05-05 18:08 | 32.16856 | -86.24853 | 37045 ft | 488 kts | 41° |
| 2026-05-05 18:09 | 32.20936 | -86.18439 | 37054 ft | 489 kts | 41° |
| 2026-05-05 18:09 | 32.25005 | -86.12006 | 37062 ft | 489 kts | 41° |
| 2026-05-05 18:10 | 32.29068 | -86.05569 | 37103 ft | 488 kts | 41° |
| 2026-05-05 18:10 | 32.32446 | -86.00231 | 37051 ft | 486 kts | 41° |
| 2026-05-05 18:11 | 32.36493 | -85.93826 | 37047 ft | 486 kts | 41° |
| 2026-05-05 18:11 | 32.40542 | -85.87407 | 37055 ft | 487 kts | 41° |
| 2026-05-05 18:12 | 32.44557 | -85.81021 | 37045 ft | 487 kts | 41° |
| 2026-05-05 18:12 | 32.48607 | -85.74564 | 37067 ft | 487 kts | 41° |
| 2026-05-05 18:13 | 32.52647 | -85.68118 | 37081 ft | 487 kts | 41° |
| 2026-05-05 18:13 | 32.56691 | -85.61659 | 37119 ft | 487 kts | 41° |
| 2026-05-05 18:14 | 32.60705 | -85.55222 | 37106 ft | 488 kts | 41° |
| 2026-05-05 18:14 | 32.64732 | -85.48758 | 37105 ft | 487 kts | 41° |
| 2026-05-05 18:15 | 32.68764 | -85.42287 | 37140 ft | 487 kts | 41° |
| 2026-05-05 18:15 | 32.72788 | -85.35808 | 37111 ft | 487 kts | 41° |
| 2026-05-05 18:16 | 32.76807 | -85.29329 | 37081 ft | 487 kts | 41° |
| 2026-05-05 18:16 | 32.80826 | -85.22841 | 37120 ft | 487 kts | 42° |
| 2026-05-05 18:17 | 32.84841 | -85.16344 | 37111 ft | 487 kts | 42° |
| 2026-05-05 18:17 | 32.88819 | -85.09884 | 37111 ft | 487 kts | 42° |
| 2026-05-05 18:18 | 32.92822 | -85.03384 | 37123 ft | 487 kts | 42° |
| 2026-05-05 18:18 | 32.96826 | -84.96878 | 37116 ft | 486 kts | 42° |
| 2026-05-05 18:19 | 33.00828 | -84.90372 | 37106 ft | 486 kts | 42° |
| 2026-05-05 18:19 | 33.04813 | -84.83869 | 37096 ft | 486 kts | 42° |
| 2026-05-05 18:20 | 33.08795 | -84.77356 | 37090 ft | 485 kts | 43° |
| 2026-05-05 18:20 | 33.12770 | -84.70840 | 37090 ft | 485 kts | 43° |
| 2026-05-05 18:21 | 33.16741 | -84.64329 | 37101 ft | 485 kts | 43° |
| 2026-05-05 18:21 | 33.20690 | -84.57849 | 37105 ft | 485 kts | 43° |
| 2026-05-05 18:22 | 33.24656 | -84.51325 | 37107 ft | 485 kts | 43° |
| 2026-05-05 18:22 | 33.28621 | -84.44786 | 37106 ft | 485 kts | 43° |
| 2026-05-05 18:23 | 33.32572 | -84.38252 | 37101 ft | 485 kts | 43° |
| 2026-05-05 18:23 | 33.36524 | -84.31710 | 37153 ft | 485 kts | 43° |
| 2026-05-05 18:24 | 33.40474 | -84.25161 | 37162 ft | 485 kts | 43° |
| 2026-05-05 18:24 | 33.44419 | -84.18612 | 37142 ft | 484 kts | 43° |
| 2026-05-05 18:25 | 33.48326 | -84.12106 | 37131 ft | 484 kts | 43° |
| 2026-05-05 18:25 | 33.52255 | -84.05548 | 37092 ft | 484 kts | 43° |
| 2026-05-05 18:26 | 33.56179 | -83.98985 | 37098 ft | 484 kts | 43° |
| 2026-05-05 18:26 | 33.60095 | -83.92433 | 37092 ft | 483 kts | 43° |
| 2026-05-05 18:27 | 33.64016 | -83.85874 | 37099 ft | 483 kts | 43° |
| 2026-05-05 18:27 | 33.67933 | -83.79319 | 37098 ft | 483 kts | 43° |
| 2026-05-05 18:28 | 33.73766 | -83.69411 | 37096 ft | 486 kts | 44° |
| 2026-05-05 18:28 | 33.77427 | -83.62537 | 37103 ft | 490 kts | 47° |
| 2026-05-05 18:29 | 33.80964 | -83.55599 | 37087 ft | 489 kts | 47° |
| 2026-05-05 18:29 | 33.84555 | -83.48669 | 37102 ft | 487 kts | 46° |
| 2026-05-05 18:30 | 33.88181 | -83.41806 | 37094 ft | 486 kts | 46° |
| 2026-05-05 18:30 | 33.91818 | -83.34926 | 37096 ft | 487 kts | 46° |
| 2026-05-05 18:31 | 33.95435 | -83.28033 | 37096 ft | 487 kts | 46° |
| 2026-05-05 18:31 | 33.99045 | -83.21130 | 37095 ft | 487 kts | 46° |
| 2026-05-05 18:32 | 34.02652 | -83.14213 | 37149 ft | 487 kts | 46° |
| 2026-05-05 18:32 | 34.06233 | -83.07331 | 37061 ft | 482 kts | 46° |
| 2026-05-05 18:33 | 34.09799 | -83.00475 | 37066 ft | 483 kts | 46° |
| 2026-05-05 18:33 | 34.13345 | -82.93643 | 37076 ft | 483 kts | 46° |
| 2026-05-05 18:34 | 34.16917 | -82.86754 | 37083 ft | 483 kts | 46° |
| 2026-05-05 18:34 | 34.20488 | -82.79854 | 37089 ft | 484 kts | 46° |
| 2026-05-05 18:35 | 34.24049 | -82.72949 | 37091 ft | 484 kts | 47° |
| 2026-05-05 18:35 | 34.27583 | -82.66073 | 37087 ft | 482 kts | 47° |
| 2026-05-05 18:36 | 34.31119 | -82.59178 | 37077 ft | 481 kts | 47° |
| 2026-05-05 18:36 | 34.34656 | -82.52309 | 37077 ft | 481 kts | 47° |
| 2026-05-05 18:37 | 34.38192 | -82.45420 | 37092 ft | 481 kts | 47° |
| 2026-05-05 18:37 | 34.41718 | -82.38515 | 37107 ft | 481 kts | 47° |
| 2026-05-05 18:38 | 34.45217 | -82.31662 | 37107 ft | 481 kts | 47° |
| 2026-05-05 18:38 | 34.48725 | -82.24764 | 37103 ft | 480 kts | 47° |
| 2026-05-05 18:39 | 34.52217 | -82.17869 | 37084 ft | 478 kts | 47° |
| 2026-05-05 18:39 | 34.55910 | -82.11256 | 37092 ft | 470 kts | 42° |
| 2026-05-05 18:40 | 34.59877 | -82.04964 | 37118 ft | 468 kts | 40° |
| 2026-05-05 18:40 | 34.63822 | -81.98740 | 37108 ft | 469 kts | 41° |
| 2026-05-05 18:41 | 34.67729 | -81.92358 | 37095 ft | 471 kts | 42° |
| 2026-05-05 18:41 | 34.71592 | -81.85925 | 37089 ft | 471 kts | 42° |
| 2026-05-05 18:42 | 34.75463 | -81.79483 | 37088 ft | 471 kts | 42° |
| 2026-05-05 18:42 | 34.79346 | -81.73058 | 37085 ft | 471 kts | 42° |
| 2026-05-05 18:43 | 34.83200 | -81.66677 | 37083 ft | 471 kts | 42° |
| 2026-05-05 18:43 | 34.87073 | -81.60235 | 37092 ft | 471 kts | 42° |
| 2026-05-05 18:44 | 34.90933 | -81.53801 | 37094 ft | 470 kts | 42° |
| 2026-05-05 18:44 | 34.94787 | -81.47374 | 37099 ft | 469 kts | 42° |
| 2026-05-05 18:45 | 34.98637 | -81.40943 | 37111 ft | 469 kts | 42° |
| 2026-05-05 18:45 | 35.02489 | -81.34502 | 37092 ft | 469 kts | 42° |
| 2026-05-05 18:46 | 35.06304 | -81.28087 | 37094 ft | 469 kts | 43° |
| 2026-05-05 18:46 | 35.10152 | -81.21602 | 37089 ft | 468 kts | 43° |
| 2026-05-05 18:47 | 35.13950 | -81.15213 | 37092 ft | 467 kts | 43° |
| 2026-05-05 18:47 | 35.17772 | -81.08782 | 37140 ft | 467 kts | 43° |
| 2026-05-05 18:48 | 35.21569 | -81.02354 | 37119 ft | 466 kts | 43° |
| 2026-05-05 18:48 | 35.25367 | -80.95931 | 37116 ft | 466 kts | 43° |
| 2026-05-05 18:49 | 35.29169 | -80.89502 | 37125 ft | 466 kts | 43° |
| 2026-05-05 18:49 | 35.32964 | -80.83070 | 37140 ft | 465 kts | 43° |
| 2026-05-05 18:50 | 35.36747 | -80.76637 | 37141 ft | 464 kts | 44° |
| 2026-05-05 18:50 | 35.39878 | -80.71301 | 37174 ft | 464 kts | 44° |
| 2026-05-05 18:51 | 35.44250 | -80.63838 | 37127 ft | 462 kts | 44° |
| 2026-05-05 18:51 | 35.47998 | -80.57439 | 37090 ft | 462 kts | 44° |
| 2026-05-05 18:52 | 35.51119 | -80.52110 | 37100 ft | 462 kts | 44° |
| 2026-05-05 18:52 | 35.54864 | -80.45688 | 37105 ft | 462 kts | 44° |
| 2026-05-05 18:53 | 35.58596 | -80.39270 | 37101 ft | 461 kts | 44° |
| 2026-05-05 18:53 | 35.62320 | -80.32849 | 37096 ft | 461 kts | 44° |
| 2026-05-05 18:54 | 35.66048 | -80.26422 | 37098 ft | 461 kts | 44° |
| 2026-05-05 18:54 | 35.69773 | -80.19998 | 37097 ft | 461 kts | 44° |
| 2026-05-05 18:55 | 35.73488 | -80.13570 | 37102 ft | 461 kts | 45° |
| 2026-05-05 18:55 | 35.77174 | -80.07180 | 37108 ft | 460 kts | 45° |
| 2026-05-05 18:56 | 35.80878 | -80.00746 | 37103 ft | 460 kts | 45° |
| 2026-05-05 18:56 | 35.84568 | -79.94311 | 37118 ft | 460 kts | 45° |
| 2026-05-05 18:57 | 35.88257 | -79.87862 | 37074 ft | 459 kts | 45° |
| 2026-05-05 18:57 | 35.91941 | -79.81407 | 37085 ft | 459 kts | 45° |
| 2026-05-05 18:58 | 35.95647 | -79.75052 | 37088 ft | 457 kts | 44° |
| 2026-05-05 18:58 | 35.99401 | -79.68704 | 37085 ft | 457 kts | 44° |
| 2026-05-05 18:59 | 36.03140 | -79.62347 | 37093 ft | 457 kts | 45° |
| 2026-05-05 18:59 | 36.06853 | -79.55982 | 37113 ft | 457 kts | 45° |
| 2026-05-05 19:00 | 36.10573 | -79.49588 | 37099 ft | 457 kts | 45° |
| 2026-05-05 19:00 | 36.14224 | -79.43297 | 37066 ft | 442 kts | 44° |
| 2026-05-05 19:01 | 36.17759 | -79.37189 | 37063 ft | 433 kts | 44° |
| 2026-05-05 19:01 | 36.21275 | -79.31164 | 37055 ft | 431 kts | 44° |
| 2026-05-05 19:02 | 36.24785 | -79.25140 | 37063 ft | 431 kts | 44° |
| 2026-05-05 19:02 | 36.28291 | -79.19093 | 37070 ft | 432 kts | 45° |
| 2026-05-05 19:03 | 36.31791 | -79.13023 | 37075 ft | 433 kts | 45° |
| 2026-05-05 19:03 | 36.35281 | -79.06972 | 37079 ft | 433 kts | 45° |
| 2026-05-05 19:04 | 36.38786 | -79.00884 | 37094 ft | 433 kts | 45° |
| 2026-05-05 19:04 | 36.42289 | -78.94791 | 37085 ft | 433 kts | 45° |
| 2026-05-05 19:05 | 36.45793 | -78.88688 | 37074 ft | 433 kts | 45° |
| 2026-05-05 19:05 | 36.49285 | -78.82595 | 37083 ft | 434 kts | 45° |
| 2026-05-05 19:06 | 36.52767 | -78.76468 | 37060 ft | 434 kts | 45° |
| 2026-05-05 19:06 | 36.56245 | -78.70323 | 37046 ft | 437 kts | 45° |
| 2026-05-05 19:07 | 36.60068 | -78.64584 | 37033 ft | 419 kts | 34° |
| 2026-05-05 19:07 | 36.64277 | -78.59583 | 37034 ft | 418 kts | 34° |
| 2026-05-05 19:08 | 36.68450 | -78.54615 | 37060 ft | 418 kts | 34° |
| 2026-05-05 19:08 | 36.72659 | -78.49584 | 37035 ft | 420 kts | 34° |
| 2026-05-05 19:09 | 36.76871 | -78.44528 | 37035 ft | 420 kts | 34° |
| 2026-05-05 19:09 | 36.81082 | -78.39457 | 37039 ft | 421 kts | 34° |
| 2026-05-05 19:10 | 36.85305 | -78.34386 | 37036 ft | 421 kts | 34° |
| 2026-05-05 19:10 | 36.87422 | -78.31850 | 36808 ft | 422 kts | 34° |
| 2026-05-05 19:10 | 36.89530 | -78.29311 | 36542 ft | 421 kts | 34° |
| 2026-05-05 19:11 | 36.91639 | -78.26767 | 36309 ft | 422 kts | 34° |
| 2026-05-05 19:11 | 36.93761 | -78.24207 | 36052 ft | 423 kts | 34° |
| 2026-05-05 19:11 | 36.95883 | -78.21646 | 35757 ft | 425 kts | 34° |
| 2026-05-05 19:11 | 36.98011 | -78.19072 | 35303 ft | 426 kts | 33° |
| 2026-05-05 19:12 | 37.00142 | -78.16494 | 34869 ft | 426 kts | 33° |
| 2026-05-05 19:12 | 37.02271 | -78.13913 | 34401 ft | 425 kts | 33° |
| 2026-05-05 19:12 | 37.04369 | -78.11369 | 33930 ft | 424 kts | 33° |
| 2026-05-05 19:12 | 37.06480 | -78.08805 | 33431 ft | 422 kts | 34° |
| 2026-05-05 19:13 | 37.08577 | -78.06250 | 32966 ft | 419 kts | 34° |
| 2026-05-05 19:13 | 37.10662 | -78.03710 | 32506 ft | 417 kts | 35° |
| 2026-05-05 19:13 | 37.12746 | -78.01179 | 32049 ft | 415 kts | 36° |
| 2026-05-05 19:13 | 37.14819 | -77.98664 | 31587 ft | 414 kts | 37° |
| 2026-05-05 19:14 | 37.16882 | -77.96158 | 31150 ft | 412 kts | 37° |
| 2026-05-05 19:14 | 37.18935 | -77.93655 | 30709 ft | 411 kts | 38° |
| 2026-05-05 19:14 | 37.20979 | -77.91163 | 30280 ft | 409 kts | 39° |
| 2026-05-05 19:14 | 37.23020 | -77.88673 | 29809 ft | 408 kts | 39° |
| 2026-05-05 19:15 | 37.25044 | -77.86201 | 29402 ft | 404 kts | 39° |
| 2026-05-05 19:15 | 37.27052 | -77.83745 | 28989 ft | 402 kts | 40° |
| 2026-05-05 19:15 | 37.29045 | -77.81303 | 28585 ft | 399 kts | 40° |
| 2026-05-05 19:15 | 37.31028 | -77.78877 | 28197 ft | 397 kts | 40° |
| 2026-05-05 19:16 | 37.32980 | -77.76490 | 27819 ft | 395 kts | 40° |
| 2026-05-05 19:16 | 37.34947 | -77.74079 | 27410 ft | 394 kts | 40° |
| 2026-05-05 19:16 | 37.36904 | -77.71675 | 27003 ft | 393 kts | 41° |
| 2026-05-05 19:16 | 37.38858 | -77.69271 | 26585 ft | 392 kts | 41° |
| 2026-05-05 19:17 | 37.40800 | -77.66875 | 26267 ft | 389 kts | 41° |
| 2026-05-05 19:17 | 37.42782 | -77.64437 | 25873 ft | 411 kts | 41° |
| 2026-05-05 19:17 | 37.44855 | -77.61893 | 25345 ft | 420 kts | 41° |
| 2026-05-05 19:17 | 37.46950 | -77.59321 | 24818 ft | 420 kts | 41° |
| 2026-05-05 19:18 | 37.49042 | -77.56747 | 24309 ft | 419 kts | 41° |
| 2026-05-05 19:18 | 37.51120 | -77.54186 | 23808 ft | 417 kts | 42° |
| 2026-05-05 19:18 | 37.53170 | -77.51650 | 23307 ft | 416 kts | 42° |
| 2026-05-05 19:18 | 37.55228 | -77.49097 | 22789 ft | 414 kts | 43° |
| 2026-05-05 19:19 | 37.57386 | -77.46717 | 22291 ft | 409 kts | 33° |
| 2026-05-05 19:19 | 37.59773 | -77.44899 | 21831 ft | 402 kts | 22° |
| 2026-05-05 19:19 | 37.62356 | -77.43667 | 21463 ft | 394 kts | 12° |
| 2026-05-05 19:19 | 37.65007 | -77.42853 | 21074 ft | 391 kts | 9° |
| 2026-05-05 19:20 | 37.67644 | -77.42047 | 20739 ft | 389 kts | 9° |
| 2026-05-05 19:20 | 37.70269 | -77.41232 | 20386 ft | 388 kts | 9° |
| 2026-05-05 19:20 | 37.72881 | -77.40419 | 20005 ft | 385 kts | 10° |
| 2026-05-05 19:20 | 37.75481 | -77.39611 | 19625 ft | 384 kts | 10° |
| 2026-05-05 19:21 | 37.78066 | -77.38809 | 19248 ft | 382 kts | 10° |
| 2026-05-05 19:21 | 37.80639 | -77.38010 | 18871 ft | 380 kts | 10° |
| 2026-05-05 19:21 | 37.83201 | -77.37215 | 18497 ft | 378 kts | 10° |
| 2026-05-05 19:21 | 37.85749 | -77.36424 | 18103 ft | 376 kts | 9° |
| 2026-05-05 19:22 | 37.88284 | -77.35638 | 17720 ft | 374 kts | 9° |
| 2026-05-05 19:22 | 37.90811 | -77.34856 | 17350 ft | 373 kts | 9° |
| 2026-05-05 19:22 | 37.93336 | -77.34082 | 16982 ft | 372 kts | 9° |
| 2026-05-05 19:22 | 37.95817 | -77.33325 | 16620 ft | 371 kts | 9° |
| 2026-05-05 19:23 | 37.98323 | -77.32558 | 16236 ft | 370 kts | 9° |
| 2026-05-05 19:23 | 38.00822 | -77.31788 | 15865 ft | 369 kts | 9° |
| 2026-05-05 19:23 | 38.03319 | -77.31018 | 15524 ft | 368 kts | 9° |
| 2026-05-05 19:23 | 38.05808 | -77.30250 | 15276 ft | 368 kts | 9° |
| 2026-05-05 19:24 | 38.08296 | -77.29483 | 15022 ft | 368 kts | 9° |
| 2026-05-05 19:24 | 38.10784 | -77.28710 | 14777 ft | 367 kts | 9° |
| 2026-05-05 19:24 | 38.13245 | -77.27935 | 14421 ft | 362 kts | 9° |
| 2026-05-05 19:24 | 38.15688 | -77.27162 | 13928 ft | 361 kts | 9° |
| 2026-05-05 19:25 | 38.18127 | -77.26393 | 13400 ft | 361 kts | 9° |
| 2026-05-05 19:25 | 38.20557 | -77.25620 | 12911 ft | 359 kts | 9° |
| 2026-05-05 19:25 | 38.22965 | -77.24776 | 12665 ft | 361 kts | 11° |
| 2026-05-05 19:25 | 38.25384 | -77.23866 | 12385 ft | 363 kts | 12° |
| 2026-05-05 19:26 | 38.27797 | -77.22927 | 12098 ft | 362 kts | 12° |
| 2026-05-05 19:26 | 38.30203 | -77.21985 | 11812 ft | 362 kts | 12° |
| 2026-05-05 19:26 | 38.32616 | -77.21046 | 11529 ft | 362 kts | 12° |
| 2026-05-05 19:26 | 38.35021 | -77.20121 | 11255 ft | 361 kts | 12° |
| 2026-05-05 19:27 | 38.37432 | -77.19203 | 10973 ft | 361 kts | 12° |
| 2026-05-05 19:27 | 38.39802 | -77.18299 | 10878 ft | 361 kts | 12° |
| 2026-05-05 19:27 | 38.42208 | -77.17373 | 10782 ft | 361 kts | 12° |
| 2026-05-05 19:27 | 38.44614 | -77.16445 | 10658 ft | 360 kts | 12° |
| 2026-05-05 19:28 | 38.47012 | -77.15518 | 10539 ft | 360 kts | 12° |
| 2026-05-05 19:28 | 38.49405 | -77.14587 | 10422 ft | 360 kts | 12° |
| 2026-05-05 19:28 | 38.51791 | -77.13658 | 10308 ft | 354 kts | 12° |
| 2026-05-05 19:28 | 38.54107 | -77.12756 | 10173 ft | 342 kts | 11° |
| 2026-05-05 19:29 | 38.56345 | -77.11886 | 10050 ft | 331 kts | 11° |
| 2026-05-05 19:29 | 38.58518 | -77.11041 | 9921 ft | 321 kts | 11° |
| 2026-05-05 19:29 | 38.60632 | -77.10221 | 9714 ft | 315 kts | 11° |
| 2026-05-05 19:29 | 38.62733 | -77.09412 | 9377 ft | 314 kts | 11° |
| 2026-05-05 19:30 | 38.64808 | -77.08620 | 9047 ft | 313 kts | 11° |
| 2026-05-05 19:30 | 38.66879 | -77.07828 | 8780 ft | 309 kts | 11° |
| 2026-05-05 19:30 | 38.68241 | -77.07321 | 8517 ft | 307 kts | 8° |
| 2026-05-05 19:30 | 38.70328 | -77.06951 | 8220 ft | 300 kts | 358° |
| 2026-05-05 19:31 | 38.72416 | -77.06749 | 7826 ft | 302 kts | 359° |
| 2026-05-05 19:31 | 38.74494 | -77.06559 | 7616 ft | 295 kts | 355° |
| 2026-05-05 19:31 | 38.76487 | -77.06837 | 7357 ft | 283 kts | 339° |
| 2026-05-05 19:31 | 38.78277 | -77.07729 | 7053 ft | 274 kts | 324° |
| 2026-05-05 19:32 | 38.79876 | -77.09024 | 6716 ft | 271 kts | 319° |
| 2026-05-05 19:32 | 38.81463 | -77.10339 | 6388 ft | 272 kts | 321° |
| 2026-05-05 19:32 | 38.83047 | -77.11668 | 6078 ft | 270 kts | 316° |
| 2026-05-05 19:32 | 38.84418 | -77.13262 | 5777 ft | 265 kts | 309° |
| 2026-05-05 19:33 | 38.85745 | -77.14913 | 5466 ft | 265 kts | 310° |
| 2026-05-05 19:33 | 38.87069 | -77.16562 | 5159 ft | 265 kts | 310° |
| 2026-05-05 19:33 | 38.88379 | -77.18192 | 4881 ft | 265 kts | 310° |
| 2026-05-05 19:33 | 38.89744 | -77.19782 | 4592 ft | 268 kts | 321° |
| 2026-05-05 19:34 | 38.91484 | -77.20650 | 4371 ft | 273 kts | 349° |
| 2026-05-05 19:34 | 38.93390 | -77.20489 | 4002 ft | 281 kts | 11° |
| 2026-05-05 19:34 | 38.95248 | -77.19635 | 3567 ft | 286 kts | 26° |
| 2026-05-05 19:35 | 38.97550 | -77.16118 | 3486 ft | 243 kts | 95° |
| 2026-05-05 19:35 | 38.97061 | -77.14218 | 3172 ft | 218 kts | 141° |
| 2026-05-05 19:35 | 38.95847 | -77.13179 | 2751 ft | 213 kts | 162° |
| 2026-05-05 19:35 | 38.94453 | -77.12478 | 2314 ft | 217 kts | 163° |
| 2026-05-05 19:36 | 38.93115 | -77.11633 | 2177 ft | 210 kts | 153° |
| 2026-05-05 19:36 | 38.91959 | -77.10527 | 1866 ft | 206 kts | 144° |
| 2026-05-05 19:36 | 38.90996 | -77.09203 | 1601 ft | 200 kts | 130° |
| 2026-05-05 19:36 | 38.90447 | -77.07585 | 1219 ft | 197 kts | 114° |
| 2026-05-05 19:37 | 38.89883 | -77.06229 | 1157 ft | 149 kts | 145° |
| 2026-05-05 19:37 | 38.89100 | -77.05546 | 949 ft | 126 kts | 160° |
| 2026-05-05 19:37 | 38.88418 | -77.04911 | 752 ft | 126 kts | 141° |
| 2026-05-05 19:37 | 38.87850 | -77.04042 | 472 ft | 121 kts | 154° |
| 2026-05-05 19:38 | 38.87120 | -77.03889 | 353 ft | 106 kts | 194° |
| 2026-05-05 19:38 | 38.86361 | -77.03894 | 105 ft | 113 kts | 180° |
| 2026-05-05 19:38 | 38.85632 | -77.03832 | 25 ft | 81 kts | 176° |
| 2026-05-05 19:38 | 38.85339 | -77.03796 | 23 ft | 24 kts | 176° |
| 2026-05-05 19:39 | 38.85205 | -77.03793 | 24 ft | 14 kts | 193° |
| 2026-05-05 19:39 | 38.85133 | -77.03856 | 26 ft | 9 kts | 220° |
| 2026-05-05 19:39 | 38.85123 | -77.03867 | 24 ft | 0 kts | 221° |
| 2026-05-05 19:39 | 38.85116 | -77.03876 | 25 ft | 5 kts | 221° |
| 2026-05-05 19:40 | 38.85081 | -77.03904 | 24 ft | 7 kts | 198° |
| 2026-05-05 19:40 | 38.85027 | -77.03906 | 24 ft | 9 kts | 176° |
| 2026-05-05 19:40 | 38.84958 | -77.03900 | 24 ft | 11 kts | 176° |
| 2026-05-05 19:40 | 38.84887 | -77.03898 | 24 ft | 8 kts | 193° |
| 2026-05-05 19:41 | 38.84899 | -77.03950 | 24 ft | 9 kts | 343° |
| 2026-05-05 19:41 | 38.84972 | -77.03959 | 24 ft | 12 kts | 354° |
| 2026-05-05 19:41 | 38.85057 | -77.03969 | 24 ft | 11 kts | 355° |
| 2026-05-05 19:41 | 38.85097 | -77.03993 | 24 ft | 6 kts | 271° |
| 2026-05-05 19:42 | 38.85072 | -77.04052 | 24 ft | 9 kts | 243° |
| 2026-05-05 19:42 | 38.85058 | -77.04088 | 24 ft | 0 kts | 244° |